createdAt,value
2017-10-11T00:00:25.894Z,0
2017-10-11T00:01:06.467Z,0
2017-10-11T00:01:47.023Z,0
2017-10-11T00:02:27.593Z,0
2017-10-11T00:03:08.182Z,0
2017-10-11T00:03:48.759Z,0
2017-10-11T00:04:29.336Z,0
2017-10-11T00:05:09.892Z,0
2017-10-11T00:05:50.455Z,0
2017-10-11T00:06:31.016Z,0
2017-10-11T00:07:11.598Z,0
2017-10-11T00:07:52.164Z,0
2017-10-11T00:08:32.737Z,0
2017-10-11T00:09:13.330Z,0
2017-10-11T00:09:53.912Z,0
2017-10-11T00:10:34.479Z,0
2017-10-11T00:11:15.039Z,0
2017-10-11T00:11:55.613Z,0
2017-10-11T00:12:36.180Z,0
2017-10-11T00:13:16.744Z,0
2017-10-11T00:13:57.320Z,0
2017-10-11T00:14:37.867Z,0
2017-10-11T00:15:18.437Z,0
2017-10-11T00:15:59.000Z,0
2017-10-11T00:16:39.566Z,0
2017-10-11T00:17:20.157Z,0
2017-10-11T00:18:00.721Z,0
2017-10-11T00:18:41.284Z,0
2017-10-11T00:19:21.840Z,0
2017-10-11T00:20:02.395Z,0
2017-10-11T00:20:42.973Z,0
2017-10-11T00:21:23.529Z,0
2017-10-11T00:22:04.081Z,0
2017-10-11T00:22:44.652Z,0
2017-10-11T00:23:25.217Z,0
2017-10-11T00:24:05.781Z,0
2017-10-11T00:24:46.351Z,0
2017-10-11T00:25:26.928Z,0
2017-10-11T00:26:07.509Z,0
2017-10-11T00:26:48.061Z,0
2017-10-11T00:27:28.624Z,0
2017-10-11T00:28:09.184Z,0
2017-10-11T00:28:49.791Z,0
2017-10-11T00:29:30.350Z,0
2017-10-11T00:30:10.912Z,0
2017-10-11T00:30:51.473Z,0
2017-10-11T00:31:32.038Z,0
2017-10-11T00:32:12.616Z,0
2017-10-11T00:32:53.184Z,0
2017-10-11T00:33:33.758Z,0
2017-10-11T00:34:14.325Z,0
2017-10-11T00:34:54.902Z,0
2017-10-11T00:35:35.468Z,0
2017-10-11T00:36:16.029Z,0
2017-10-11T00:36:56.599Z,0
2017-10-11T00:37:37.158Z,0
2017-10-11T00:38:17.712Z,0
2017-10-11T00:38:58.275Z,0
2017-10-11T00:39:38.834Z,0
2017-10-11T00:40:19.389Z,0
2017-10-11T00:40:59.952Z,0
2017-10-11T00:41:40.513Z,0
2017-10-11T00:42:21.077Z,0
2017-10-11T00:43:01.653Z,0
2017-10-11T00:43:42.213Z,0
2017-10-11T00:44:22.770Z,0
2017-10-11T00:45:03.337Z,0
2017-10-11T00:45:43.902Z,0
2017-10-11T00:46:24.474Z,0
2017-10-11T00:47:05.049Z,0
2017-10-11T00:47:45.636Z,0
2017-10-11T00:48:26.236Z,0
2017-10-11T00:49:06.803Z,0
2017-10-11T00:49:50.256Z,0
2017-10-11T00:50:30.822Z,0
2017-10-11T00:51:11.387Z,0
2017-10-11T00:51:51.952Z,0
2017-10-11T00:52:32.534Z,0
2017-10-11T00:53:13.101Z,0
2017-10-11T00:53:53.665Z,0
2017-10-11T00:54:34.231Z,0
2017-10-11T00:55:14.806Z,0
2017-10-11T00:55:55.383Z,0
2017-10-11T00:56:35.945Z,0
2017-10-11T00:57:16.509Z,0
2017-10-11T00:57:57.071Z,0
2017-10-11T00:58:37.638Z,0
2017-10-11T00:59:18.200Z,0
2017-10-11T00:59:58.761Z,0
2017-10-11T01:00:39.329Z,0
2017-10-11T01:01:19.895Z,0
2017-10-11T01:02:00.458Z,0
2017-10-11T01:02:41.040Z,0
2017-10-11T01:03:21.599Z,0
2017-10-11T01:04:02.151Z,0
2017-10-11T01:04:42.716Z,0
2017-10-11T01:05:23.301Z,0
2017-10-11T01:06:03.870Z,0
2017-10-11T01:06:44.451Z,0
2017-10-11T01:07:25.005Z,0
2017-10-11T01:08:05.577Z,0
2017-10-11T01:08:46.137Z,0
2017-10-11T01:09:26.708Z,0
2017-10-11T01:10:07.285Z,0
2017-10-11T01:10:47.840Z,0
2017-10-11T01:11:28.414Z,0
2017-10-11T01:12:08.982Z,0
2017-10-11T01:12:49.543Z,0
2017-10-11T01:13:30.103Z,0
2017-10-11T01:14:10.669Z,0
2017-10-11T01:14:51.233Z,0
2017-10-11T01:15:31.791Z,0
2017-10-11T01:16:12.363Z,0
2017-10-11T01:16:52.934Z,0
2017-10-11T01:17:33.491Z,0
2017-10-11T01:18:14.053Z,0
2017-10-11T01:18:54.631Z,0
2017-10-11T01:19:35.216Z,0
2017-10-11T01:20:15.817Z,0
2017-10-11T01:20:56.390Z,0
2017-10-11T01:21:36.963Z,0
2017-10-11T01:22:17.532Z,0
2017-10-11T01:22:58.093Z,0
2017-10-11T01:23:38.658Z,0
2017-10-11T01:24:19.216Z,0
2017-10-11T01:24:59.774Z,0
2017-10-11T01:25:40.333Z,0
2017-10-11T01:26:20.895Z,0
2017-10-11T01:27:01.457Z,0
2017-10-11T01:27:42.019Z,0
2017-10-11T01:28:22.581Z,0
2017-10-11T01:29:03.153Z,0
2017-10-11T01:29:43.730Z,0
2017-10-11T01:30:24.329Z,0
2017-10-11T01:31:04.882Z,0
2017-10-11T01:31:45.447Z,0
2017-10-11T01:32:26.013Z,0
2017-10-11T01:33:06.580Z,0
2017-10-11T01:33:47.145Z,0
2017-10-11T01:34:27.704Z,0
2017-10-11T01:35:08.278Z,0
2017-10-11T01:35:48.856Z,0
2017-10-11T01:36:29.417Z,0
2017-10-11T01:37:09.993Z,0
2017-10-11T01:37:50.546Z,0
2017-10-11T01:38:31.120Z,0
2017-10-11T01:39:11.689Z,0
2017-10-11T01:39:52.251Z,0
2017-10-11T01:40:32.811Z,0
2017-10-11T01:41:13.384Z,0
2017-10-11T01:41:53.945Z,0
2017-10-11T01:42:34.505Z,0
2017-10-11T01:43:15.078Z,0
2017-10-11T01:43:55.639Z,0
2017-10-11T01:44:36.207Z,0
2017-10-11T01:45:16.778Z,0
2017-10-11T01:45:57.341Z,0
2017-10-11T01:46:37.913Z,0
2017-10-11T01:47:18.475Z,0
2017-10-11T01:47:59.044Z,0
2017-10-11T01:48:39.604Z,0
2017-10-11T01:49:20.165Z,0
2017-10-11T01:50:00.727Z,0
2017-10-11T01:50:41.301Z,0
2017-10-11T01:51:21.867Z,0
2017-10-11T01:52:02.469Z,0
2017-10-11T01:52:43.056Z,0
2017-10-11T01:53:23.611Z,0
2017-10-11T01:54:04.197Z,0
2017-10-11T01:54:44.765Z,0
2017-10-11T01:55:25.325Z,0
2017-10-11T01:56:05.890Z,0
2017-10-11T01:56:46.457Z,0
2017-10-11T01:57:27.057Z,0
2017-10-11T01:58:07.619Z,0
2017-10-11T01:58:48.183Z,0
2017-10-11T01:59:28.745Z,0
2017-10-11T02:00:09.324Z,0
2017-10-11T02:00:49.904Z,0
2017-10-11T02:01:30.466Z,0
2017-10-11T02:02:11.022Z,0
2017-10-11T02:02:51.580Z,0
2017-10-11T02:03:32.144Z,0
2017-10-11T02:04:12.697Z,0
2017-10-11T02:04:53.272Z,0
2017-10-11T02:05:33.837Z,0
2017-10-11T02:06:14.413Z,0
2017-10-11T02:06:54.982Z,0
2017-10-11T02:07:35.555Z,0
2017-10-11T02:08:16.116Z,0
2017-10-11T02:08:56.677Z,0
2017-10-11T02:09:37.877Z,0
2017-10-11T02:10:18.430Z,0
2017-10-11T02:10:59.000Z,0
2017-10-11T02:11:39.550Z,0
2017-10-11T02:12:20.119Z,0
2017-10-11T02:13:00.683Z,0
2017-10-11T02:13:41.259Z,0
2017-10-11T02:14:21.828Z,0
2017-10-11T02:15:02.416Z,0
2017-10-11T02:15:42.994Z,0
2017-10-11T02:16:23.559Z,0
2017-10-11T02:17:04.130Z,0
2017-10-11T02:17:44.718Z,0
2017-10-11T02:18:27.270Z,0
2017-10-11T02:19:07.846Z,0
2017-10-11T02:19:51.274Z,0
2017-10-11T02:20:31.841Z,0
2017-10-11T02:21:12.412Z,0
2017-10-11T02:21:52.987Z,0
2017-10-11T02:22:33.569Z,0
2017-10-11T02:23:14.131Z,0
2017-10-11T02:23:54.701Z,0
2017-10-11T02:24:35.283Z,0
2017-10-11T02:25:15.858Z,0
2017-10-11T02:25:56.424Z,0
2017-10-11T02:26:36.988Z,0
2017-10-11T02:27:17.547Z,0
2017-10-11T02:27:58.121Z,0
2017-10-11T02:28:38.691Z,0
2017-10-11T02:29:19.264Z,0
2017-10-11T02:29:59.828Z,0
2017-10-11T02:30:40.397Z,0
2017-10-11T02:31:20.987Z,0
2017-10-11T02:32:01.554Z,0
2017-10-11T02:32:42.115Z,0
2017-10-11T02:33:22.691Z,0
2017-10-11T02:34:03.269Z,0
2017-10-11T02:34:43.827Z,0
2017-10-11T02:35:24.424Z,0
2017-10-11T02:36:05.008Z,0
2017-10-11T02:36:45.582Z,0
2017-10-11T02:37:26.164Z,0
2017-10-11T02:38:06.712Z,0
2017-10-11T02:38:47.285Z,0
2017-10-11T02:39:27.859Z,0
2017-10-11T02:40:08.426Z,0
2017-10-11T02:40:48.994Z,0
2017-10-11T02:41:29.556Z,0
2017-10-11T02:42:10.118Z,0
2017-10-11T02:42:50.682Z,0
2017-10-11T02:43:31.254Z,0
2017-10-11T02:44:11.823Z,0
2017-10-11T02:44:52.389Z,0
2017-10-11T02:45:32.963Z,0
2017-10-11T02:46:13.549Z,0
2017-10-11T02:49:02.667Z,0
2017-10-11T02:49:58.088Z,0
2017-10-11T02:52:10.847Z,0
2017-10-11T02:52:53.176Z,0
2017-10-11T02:53:33.735Z,0
2017-10-11T02:54:14.306Z,0
2017-10-11T02:54:54.859Z,0
2017-10-11T02:55:35.424Z,0
2017-10-11T02:56:15.985Z,0
2017-10-11T02:56:56.576Z,0
2017-10-11T02:57:37.146Z,0
2017-10-11T02:58:19.411Z,0
2017-10-11T02:59:00.010Z,0
2017-10-11T02:59:40.576Z,0
2017-10-11T03:00:28.908Z,0
2017-10-11T03:01:09.479Z,0
2017-10-11T03:01:50.046Z,0
2017-10-11T03:02:30.617Z,0
2017-10-11T03:03:15.828Z,0
2017-10-11T03:03:59.916Z,0
2017-10-11T03:04:50.062Z,0
2017-10-11T03:05:35.313Z,0
2017-10-11T03:06:15.886Z,0
2017-10-11T03:07:03.815Z,0
2017-10-11T03:07:44.392Z,0
2017-10-11T03:08:27.716Z,0
2017-10-11T03:09:08.295Z,0
2017-10-11T03:09:48.843Z,0
2017-10-11T03:10:29.404Z,0
2017-10-11T03:11:09.977Z,0
2017-10-11T03:11:51.426Z,0
2017-10-11T03:12:31.994Z,0
2017-10-11T03:13:15.221Z,0
2017-10-11T03:13:55.794Z,0
2017-10-11T03:14:36.367Z,0
2017-10-11T03:15:16.925Z,0
2017-10-11T03:15:57.498Z,0
2017-10-11T03:16:38.069Z,0
2017-10-11T03:17:26.062Z,0
2017-10-11T03:18:06.631Z,0
2017-10-11T03:18:47.199Z,0
2017-10-11T03:19:27.761Z,0
2017-10-11T03:20:08.323Z,0
2017-10-11T03:20:48.893Z,0
2017-10-11T03:21:34.168Z,0
2017-10-11T03:22:14.758Z,0
2017-10-11T03:22:55.323Z,0
2017-10-11T03:23:36.716Z,0
2017-10-11T03:24:20.221Z,0
2017-10-11T03:25:00.814Z,0
2017-10-11T03:25:41.427Z,0
2017-10-11T03:26:22.005Z,0
2017-10-11T03:27:02.576Z,0
2017-10-11T03:27:44.072Z,0
2017-10-11T03:28:29.448Z,0
2017-10-11T03:29:10.609Z,0
2017-10-11T03:29:53.720Z,0
2017-10-11T03:30:35.077Z,0
2017-10-11T03:31:17.566Z,0
2017-10-11T03:31:58.122Z,0
2017-10-11T03:32:38.687Z,0
2017-10-11T03:33:19.239Z,0
2017-10-11T03:33:59.808Z,0
2017-10-11T03:34:40.382Z,0
2017-10-11T03:35:20.968Z,0
2017-10-11T03:36:01.532Z,0
2017-10-11T03:36:42.085Z,0
2017-10-11T03:37:22.651Z,0
2017-10-11T03:38:03.227Z,0
2017-10-11T03:38:43.790Z,0
2017-10-11T03:39:24.344Z,0
2017-10-11T03:40:04.905Z,0
2017-10-11T03:40:45.518Z,0
2017-10-11T03:41:26.077Z,0
2017-10-11T03:42:09.178Z,0
2017-10-11T03:42:49.736Z,0
2017-10-11T03:43:31.820Z,0
2017-10-11T03:44:12.917Z,0
2017-10-11T03:44:54.434Z,0
2017-10-11T03:45:35.006Z,0
2017-10-11T03:46:15.585Z,0
2017-10-11T03:46:56.141Z,0
2017-10-11T03:47:38.684Z,0
2017-10-11T03:48:19.252Z,0
2017-10-11T03:49:00.574Z,0
2017-10-11T03:49:41.152Z,0
2017-10-11T03:50:21.716Z,0
2017-10-11T03:51:02.283Z,0
2017-10-11T03:51:45.419Z,0
2017-10-11T03:52:26.008Z,0
2017-10-11T03:53:08.425Z,0
2017-10-11T03:53:49.005Z,0
2017-10-11T03:54:29.554Z,0
2017-10-11T03:55:15.227Z,0
2017-10-11T03:55:57.579Z,0
2017-10-11T03:56:38.145Z,0
2017-10-11T03:57:18.711Z,0
2017-10-11T03:57:59.289Z,0
2017-10-11T03:58:39.869Z,0
2017-10-11T03:59:20.460Z,0
2017-10-11T04:00:01.015Z,0
2017-10-11T04:00:41.573Z,0
2017-10-11T04:01:22.134Z,0
2017-10-11T04:02:02.700Z,0
2017-10-11T04:02:52.839Z,0
2017-10-11T04:03:33.391Z,0
2017-10-11T04:04:16.825Z,0
2017-10-11T04:04:57.387Z,0
2017-10-11T04:05:39.573Z,0
2017-10-11T04:06:20.139Z,0
2017-10-11T04:07:02.564Z,0
2017-10-11T04:07:43.128Z,0
2017-10-11T04:08:23.696Z,0
2017-10-11T04:09:04.270Z,0
2017-10-11T04:09:44.849Z,0
2017-10-11T04:10:28.077Z,0
2017-10-11T04:11:08.655Z,0
2017-10-11T04:11:50.230Z,0
2017-10-11T04:12:30.801Z,0
2017-10-11T04:13:11.949Z,0
2017-10-11T04:13:52.526Z,0
2017-10-11T04:14:34.072Z,0
2017-10-11T04:15:14.643Z,0
2017-10-11T04:15:55.198Z,0
2017-10-11T04:16:37.325Z,0
2017-10-11T04:17:19.685Z,0
2017-10-11T04:18:00.239Z,0
2017-10-11T04:18:40.807Z,0
2017-10-11T04:19:21.376Z,0
2017-10-11T04:20:03.669Z,0
2017-10-11T04:20:45.093Z,0
2017-10-11T04:21:25.631Z,0
2017-10-11T04:22:06.202Z,0
2017-10-11T04:22:46.788Z,0
2017-10-11T04:23:27.349Z,0
2017-10-11T04:24:07.914Z,0
2017-10-11T04:24:48.473Z,0
2017-10-11T04:25:29.052Z,0
2017-10-11T04:26:09.636Z,0
2017-10-11T04:26:50.197Z,0
2017-10-11T04:27:30.765Z,0
2017-10-11T04:28:11.329Z,0
2017-10-11T04:28:51.901Z,0
2017-10-11T04:29:32.486Z,0
2017-10-11T04:30:13.053Z,0
2017-10-11T04:30:53.611Z,0
2017-10-11T04:31:34.178Z,0
2017-10-11T04:32:14.741Z,0
2017-10-11T04:32:56.166Z,0
2017-10-11T04:33:35.895Z,0
2017-10-11T04:34:16.472Z,0
2017-10-11T04:34:57.030Z,0
2017-10-11T04:35:37.600Z,0
2017-10-11T04:36:18.161Z,0
2017-10-11T04:36:58.731Z,0
2017-10-11T04:37:39.299Z,0
2017-10-11T04:38:19.858Z,0
2017-10-11T04:39:00.433Z,0
2017-10-11T04:39:40.994Z,0
2017-10-11T04:40:21.554Z,0
2017-10-11T04:41:02.131Z,0
2017-10-11T04:41:42.693Z,0
2017-10-11T04:42:23.262Z,0
2017-10-11T04:43:03.820Z,0
2017-10-11T04:43:44.376Z,0
2017-10-11T04:44:25.009Z,0
2017-10-11T04:45:05.581Z,0
2017-10-11T04:45:46.174Z,0
2017-10-11T04:46:26.745Z,0
2017-10-11T04:47:07.308Z,0
2017-10-11T04:47:47.883Z,0
2017-10-11T04:48:28.457Z,0
2017-10-11T04:49:09.848Z,0
2017-10-11T04:49:50.400Z,0
2017-10-11T04:50:31.015Z,0
2017-10-11T04:51:11.605Z,0
2017-10-11T04:51:52.191Z,0
2017-10-11T04:52:32.756Z,0
2017-10-11T04:53:14.481Z,0
2017-10-11T04:53:56.132Z,0
2017-10-11T04:54:37.789Z,0
2017-10-11T04:55:18.343Z,0
2017-10-11T04:55:58.908Z,0
2017-10-11T04:56:39.499Z,0
2017-10-11T04:57:20.247Z,0
2017-10-11T04:58:00.806Z,0
2017-10-11T04:58:41.386Z,0
2017-10-11T04:59:21.940Z,0
2017-10-11T05:00:02.521Z,0
2017-10-11T05:00:43.080Z,0
2017-10-11T05:01:23.660Z,0
2017-10-11T05:02:04.247Z,0
2017-10-11T05:02:44.813Z,0
2017-10-11T05:03:25.476Z,0
2017-10-11T05:04:06.053Z,0
2017-10-11T05:04:46.629Z,0
2017-10-11T05:05:27.207Z,0
2017-10-11T05:06:07.771Z,0
2017-10-11T05:06:48.337Z,0
2017-10-11T05:07:28.904Z,0
2017-10-11T05:08:09.469Z,0
2017-10-11T05:08:50.033Z,0
2017-10-11T05:09:30.586Z,0
2017-10-11T05:10:11.157Z,0
2017-10-11T05:10:51.725Z,0
2017-10-11T05:11:32.291Z,0
2017-10-11T05:12:12.857Z,0
2017-10-11T05:12:55.854Z,0
2017-10-11T05:13:36.508Z,0
2017-10-11T05:14:17.064Z,0
2017-10-11T05:14:57.651Z,0
2017-10-11T05:15:38.212Z,0
2017-10-11T05:16:18.778Z,0
2017-10-11T05:16:59.330Z,0
2017-10-11T05:17:39.897Z,0
2017-10-11T05:18:20.465Z,0
2017-10-11T05:19:01.019Z,0
2017-10-11T05:19:41.587Z,0
2017-10-11T05:20:22.140Z,0
2017-10-11T05:21:02.705Z,0
2017-10-11T05:21:44.936Z,0
2017-10-11T05:22:25.491Z,0
2017-10-11T05:23:07.062Z,0
2017-10-11T05:23:47.876Z,0
2017-10-11T05:24:28.449Z,0
2017-10-11T05:25:09.013Z,0
2017-10-11T05:25:49.606Z,0
2017-10-11T05:26:30.170Z,0
2017-10-11T05:27:10.737Z,0
2017-10-11T05:27:51.303Z,0
2017-10-11T05:28:31.875Z,0
2017-10-11T05:29:12.439Z,0
2017-10-11T05:29:53.000Z,0
2017-10-11T05:30:33.563Z,0
2017-10-11T05:31:14.145Z,0
2017-10-11T05:31:54.712Z,0
2017-10-11T05:32:35.280Z,0
2017-10-11T05:33:15.870Z,0
2017-10-11T05:33:56.438Z,0
2017-10-11T05:34:37.054Z,0
2017-10-11T05:35:17.623Z,0
2017-10-11T05:35:58.200Z,0
2017-10-11T05:36:38.773Z,0
2017-10-11T05:37:19.333Z,0
2017-10-11T05:37:59.918Z,0
2017-10-11T05:38:40.499Z,0
2017-10-11T05:39:21.071Z,0
2017-10-11T05:40:01.643Z,0
2017-10-11T05:40:42.283Z,0
2017-10-11T05:41:23.014Z,0
2017-10-11T05:42:03.598Z,0
2017-10-11T05:42:44.582Z,0
2017-10-11T05:43:25.181Z,0
2017-10-11T05:44:05.754Z,0
2017-10-11T05:44:46.328Z,0
2017-10-11T05:45:27.036Z,0
2017-10-11T05:46:07.509Z,0
2017-10-11T05:46:48.077Z,0
2017-10-11T05:47:28.639Z,0
2017-10-11T05:48:09.237Z,0
2017-10-11T05:48:49.822Z,0
2017-10-11T05:49:30.389Z,0
2017-10-11T05:50:10.962Z,0
2017-10-11T05:50:51.582Z,0
2017-10-11T05:51:32.138Z,0
2017-10-11T05:52:12.734Z,0
2017-10-11T05:52:53.275Z,0
2017-10-11T05:53:33.866Z,0
2017-10-11T05:54:14.425Z,0
2017-10-11T05:54:54.993Z,5
2017-10-11T05:55:35.559Z,5
2017-10-11T05:56:16.137Z,5
2017-10-11T05:56:56.689Z,5
2017-10-11T05:57:37.257Z,5
2017-10-11T05:58:17.826Z,5
2017-10-11T05:58:58.396Z,5
2017-10-11T05:59:38.967Z,5
2017-10-11T06:00:19.538Z,5
2017-10-11T06:01:00.114Z,5
2017-10-11T06:01:40.684Z,5
2017-10-11T06:02:21.272Z,5
2017-10-11T06:03:01.857Z,5
2017-10-11T06:03:42.429Z,5
2017-10-11T06:04:22.997Z,5
2017-10-11T06:05:03.566Z,5
2017-10-11T06:05:44.134Z,5
2017-10-11T06:06:25.100Z,5
2017-10-11T06:07:05.667Z,5
2017-10-11T06:07:46.248Z,5
2017-10-11T06:08:26.818Z,5
2017-10-11T06:09:07.385Z,5
2017-10-11T06:09:47.969Z,5
2017-10-11T06:10:28.561Z,5
2017-10-11T06:11:09.135Z,5
2017-10-11T06:11:49.691Z,5
2017-10-11T06:12:30.289Z,5
2017-10-11T06:13:10.899Z,5
2017-10-11T06:13:51.459Z,5
2017-10-11T06:14:32.026Z,5
2017-10-11T06:15:12.595Z,10
2017-10-11T06:15:53.178Z,10
2017-10-11T06:16:33.762Z,5
2017-10-11T06:17:14.334Z,5
2017-10-11T06:17:54.914Z,5
2017-10-11T06:18:35.478Z,5
2017-10-11T06:19:16.052Z,5
2017-10-11T06:19:56.632Z,10
2017-10-11T06:20:37.204Z,10
2017-10-11T06:21:17.806Z,10
2017-10-11T06:21:58.367Z,10
2017-10-11T06:22:39.089Z,10
2017-10-11T06:23:19.663Z,10
2017-10-11T06:24:00.227Z,10
2017-10-11T06:24:40.854Z,10
2017-10-11T06:25:21.468Z,10
2017-10-11T06:26:02.047Z,10
2017-10-11T06:26:42.612Z,10
2017-10-11T06:27:23.193Z,10
2017-10-11T06:28:04.311Z,10
2017-10-11T06:28:44.880Z,10
2017-10-11T06:29:25.487Z,10
2017-10-11T06:30:06.085Z,10
2017-10-11T06:30:46.644Z,10
2017-10-11T06:31:27.239Z,10
2017-10-11T06:32:07.789Z,10
2017-10-11T06:32:48.347Z,10
2017-10-11T06:33:28.911Z,10
2017-10-11T06:34:09.482Z,10
2017-10-11T06:34:50.050Z,10
2017-10-11T06:35:30.619Z,10
2017-10-11T06:36:11.181Z,10
2017-10-11T06:36:51.748Z,10
2017-10-11T06:37:32.338Z,15
2017-10-11T06:38:12.947Z,15
2017-10-11T06:38:53.516Z,15
2017-10-11T06:39:34.105Z,15
2017-10-11T06:40:14.675Z,15
2017-10-11T06:40:55.251Z,15
2017-10-11T06:41:35.841Z,15
2017-10-11T06:42:16.425Z,15
2017-10-11T06:42:56.986Z,15
2017-10-11T06:43:37.601Z,20
2017-10-11T06:44:18.209Z,20
2017-10-11T06:44:58.814Z,25
2017-10-11T06:45:39.375Z,25
2017-10-11T06:46:20.498Z,30
2017-10-11T06:47:01.541Z,30
2017-10-11T06:47:42.097Z,30
2017-10-11T06:48:22.657Z,35
2017-10-11T06:49:03.232Z,35
2017-10-11T06:49:43.825Z,40
2017-10-11T06:50:24.385Z,40
2017-10-11T06:51:04.958Z,35
2017-10-11T06:51:45.620Z,40
2017-10-11T06:52:26.206Z,40
2017-10-11T06:53:06.775Z,45
2017-10-11T06:53:47.333Z,40
2017-10-11T06:54:27.923Z,45
2017-10-11T06:55:08.484Z,45
2017-10-11T06:55:49.087Z,50
2017-10-11T06:56:29.677Z,55
2017-10-11T06:57:10.245Z,55
2017-10-11T06:57:50.807Z,55
2017-10-11T06:58:31.384Z,50
2017-10-11T06:59:11.970Z,45
2017-10-11T06:59:52.552Z,45
2017-10-11T07:00:33.115Z,45
2017-10-11T07:01:13.754Z,45
2017-10-11T07:01:54.357Z,50
2017-10-11T07:02:34.905Z,50
2017-10-11T07:03:15.464Z,55
2017-10-11T07:03:56.048Z,60
2017-10-11T07:04:36.627Z,65
2017-10-11T07:05:17.202Z,75
2017-10-11T07:05:57.885Z,60
2017-10-11T07:06:38.530Z,45
2017-10-11T07:07:19.125Z,40
2017-10-11T07:07:59.695Z,35
2017-10-11T07:08:40.281Z,35
2017-10-11T07:09:20.944Z,35
2017-10-11T07:10:01.809Z,35
2017-10-11T07:10:42.301Z,35
2017-10-11T07:11:22.871Z,35
2017-10-11T07:12:03.431Z,35
2017-10-11T07:12:43.999Z,30
2017-10-11T07:13:24.579Z,30
2017-10-11T07:14:05.178Z,30
2017-10-11T07:14:45.745Z,25
2017-10-11T07:15:26.308Z,25
2017-10-11T07:16:06.878Z,25
2017-10-11T07:16:47.434Z,25
2017-10-11T07:17:27.992Z,25
2017-10-11T07:18:08.551Z,25
2017-10-11T07:18:49.283Z,25
2017-10-11T07:19:29.872Z,25
2017-10-11T07:20:10.443Z,25
2017-10-11T07:20:51.256Z,20
2017-10-11T07:21:31.856Z,20
2017-10-11T07:22:12.417Z,20
2017-10-11T07:22:52.984Z,20
2017-10-11T07:23:33.546Z,20
2017-10-11T07:24:14.142Z,20
2017-10-11T07:24:55.405Z,20
2017-10-11T07:25:36.099Z,20
2017-10-11T07:26:16.683Z,20
2017-10-11T07:26:57.499Z,20
2017-10-11T07:27:38.063Z,15
2017-10-11T07:28:18.644Z,15
2017-10-11T07:28:59.189Z,15
2017-10-11T07:29:39.794Z,15
2017-10-11T07:30:20.372Z,10
2017-10-11T07:31:00.934Z,15
2017-10-11T07:31:41.509Z,15
2017-10-11T07:32:22.071Z,15
2017-10-11T07:33:02.645Z,15
2017-10-11T07:33:43.213Z,15
2017-10-11T07:34:23.777Z,15
2017-10-11T07:35:04.352Z,15
2017-10-11T07:35:44.914Z,15
2017-10-11T07:36:25.492Z,20
2017-10-11T07:37:06.065Z,20
2017-10-11T07:37:46.636Z,20
2017-10-11T07:38:27.229Z,20
2017-10-11T07:39:07.803Z,20
2017-10-11T07:39:48.374Z,20
2017-10-11T07:40:28.941Z,25
2017-10-11T07:41:09.511Z,30
2017-10-11T07:41:50.094Z,30
2017-10-11T07:42:30.652Z,30
2017-10-11T07:43:11.226Z,30
2017-10-11T07:43:52.079Z,25
2017-10-11T07:44:32.657Z,25
2017-10-11T07:45:13.240Z,25
2017-10-11T07:45:53.819Z,25
2017-10-11T07:46:34.404Z,25
2017-10-11T07:47:14.952Z,25
2017-10-11T07:47:55.516Z,30
2017-10-11T07:48:36.096Z,35
2017-10-11T07:49:16.664Z,35
2017-10-11T07:49:57.227Z,40
2017-10-11T07:50:37.809Z,40
2017-10-11T07:51:18.380Z,40
2017-10-11T07:51:58.939Z,45
2017-10-11T07:52:39.497Z,50
2017-10-11T07:53:20.063Z,50
2017-10-11T07:54:00.633Z,50
2017-10-11T07:54:41.191Z,50
2017-10-11T07:55:21.764Z,55
2017-10-11T07:56:02.328Z,50
2017-10-11T07:56:42.894Z,55
2017-10-11T07:57:23.473Z,55
2017-10-11T07:58:04.042Z,55
2017-10-11T07:58:44.620Z,55
2017-10-11T07:59:25.190Z,50
2017-10-11T08:00:05.750Z,50
2017-10-11T08:00:46.304Z,50
2017-10-11T08:01:26.871Z,50
2017-10-11T08:02:07.442Z,45
2017-10-11T08:02:48.030Z,40
2017-10-11T08:03:28.602Z,40
2017-10-11T08:04:09.166Z,45
2017-10-11T08:04:49.730Z,45
2017-10-11T08:05:30.307Z,45
2017-10-11T08:06:10.872Z,45
2017-10-11T08:06:51.435Z,45
2017-10-11T08:07:32.002Z,45
2017-10-11T08:08:12.597Z,45
2017-10-11T08:08:53.198Z,45
2017-10-11T08:09:33.771Z,45
2017-10-11T08:10:14.339Z,45
2017-10-11T08:10:54.894Z,45
2017-10-11T08:11:35.474Z,45
2017-10-11T08:12:16.060Z,45
2017-10-11T08:12:56.631Z,45
2017-10-11T08:13:37.195Z,40
2017-10-11T08:14:17.773Z,40
2017-10-11T08:14:58.348Z,40
2017-10-11T08:15:38.904Z,40
2017-10-11T08:16:19.471Z,40
2017-10-11T08:17:00.028Z,45
2017-10-11T08:17:40.590Z,50
2017-10-11T08:18:21.157Z,50
2017-10-11T08:19:01.743Z,50
2017-10-11T08:19:42.313Z,50
2017-10-11T08:20:22.905Z,45
2017-10-11T08:21:03.463Z,45
2017-10-11T08:21:44.038Z,45
2017-10-11T08:22:24.604Z,50
2017-10-11T08:23:05.174Z,55
2017-10-11T08:23:45.745Z,60
2017-10-11T08:24:26.307Z,50
2017-10-11T08:25:06.871Z,40
2017-10-11T08:25:47.434Z,45
2017-10-11T08:26:27.991Z,50
2017-10-11T08:27:08.564Z,60
2017-10-11T08:27:49.124Z,65
2017-10-11T08:28:29.678Z,70
2017-10-11T08:29:10.254Z,65
2017-10-11T08:29:50.790Z,50
2017-10-11T08:30:31.352Z,45
2017-10-11T08:31:11.931Z,50
2017-10-11T08:31:52.501Z,50
2017-10-11T08:32:33.061Z,55
2017-10-11T08:33:13.635Z,60
2017-10-11T08:33:54.213Z,60
2017-10-11T08:34:34.784Z,60
2017-10-11T08:35:15.375Z,65
2017-10-11T08:35:55.966Z,80
2017-10-11T08:36:36.534Z,110
2017-10-11T08:37:17.143Z,230
2017-10-11T08:37:57.705Z,225
2017-10-11T08:38:38.273Z,335
2017-10-11T08:39:18.840Z,240
2017-10-11T08:39:59.402Z,275
2017-10-11T08:40:39.977Z,205
2017-10-11T08:41:20.551Z,220
2017-10-11T08:42:01.113Z,250
2017-10-11T08:42:41.677Z,260
2017-10-11T08:43:22.244Z,140
2017-10-11T08:44:02.807Z,110
2017-10-11T08:44:43.377Z,125
2017-10-11T08:45:23.946Z,110
2017-10-11T08:46:04.516Z,130
2017-10-11T08:46:45.087Z,125
2017-10-11T08:47:25.669Z,135
2017-10-11T08:48:06.227Z,120
2017-10-11T08:48:46.799Z,110
2017-10-11T08:49:27.372Z,110
2017-10-11T08:50:07.949Z,135
2017-10-11T08:50:48.522Z,145
2017-10-11T08:51:29.088Z,145
2017-10-11T08:52:09.651Z,180
2017-10-11T08:52:50.214Z,135
2017-10-11T08:53:30.823Z,145
2017-10-11T08:54:11.395Z,170
2017-10-11T08:54:51.957Z,205
2017-10-11T08:55:32.536Z,230
2017-10-11T08:56:13.105Z,240
2017-10-11T08:56:53.672Z,255
2017-10-11T08:57:34.231Z,195
2017-10-11T08:58:14.809Z,170
2017-10-11T08:58:55.379Z,155
2017-10-11T08:59:35.968Z,165
2017-10-11T09:00:16.562Z,165
2017-10-11T09:00:57.145Z,165
2017-10-11T09:01:37.715Z,150
2017-10-11T09:02:18.279Z,155
2017-10-11T09:02:58.847Z,180
2017-10-11T09:03:39.422Z,155
2017-10-11T09:04:19.996Z,125
2017-10-11T09:05:00.559Z,125
2017-10-11T09:05:41.119Z,130
2017-10-11T09:06:21.725Z,145
2017-10-11T09:07:02.273Z,135
2017-10-11T09:07:42.841Z,125
2017-10-11T09:08:23.410Z,115
2017-10-11T09:09:03.989Z,105
2017-10-11T09:09:44.559Z,80
2017-10-11T09:10:25.121Z,80
2017-10-11T09:11:05.681Z,80
2017-10-11T09:11:46.258Z,80
2017-10-11T09:12:26.855Z,70
2017-10-11T09:13:07.421Z,60
2017-10-11T09:13:47.978Z,60
2017-10-11T09:14:28.543Z,65
2017-10-11T09:15:09.097Z,60
2017-10-11T09:15:49.673Z,55
2017-10-11T09:16:30.269Z,55
2017-10-11T09:17:10.830Z,55
2017-10-11T09:17:51.399Z,50
2017-10-11T09:18:31.957Z,55
2017-10-11T09:19:12.524Z,55
2017-10-11T09:19:53.089Z,50
2017-10-11T09:20:33.657Z,50
2017-10-11T09:21:14.218Z,40
2017-10-11T09:21:54.808Z,50
2017-10-11T09:22:35.380Z,50
2017-10-11T09:23:15.962Z,50
2017-10-11T09:23:56.536Z,55
2017-10-11T09:24:37.092Z,60
2017-10-11T09:25:17.661Z,50
2017-10-11T09:25:58.218Z,55
2017-10-11T09:26:38.779Z,45
2017-10-11T09:27:19.375Z,45
2017-10-11T09:27:59.937Z,50
2017-10-11T09:28:40.499Z,60
2017-10-11T09:29:21.075Z,60
2017-10-11T09:30:01.711Z,55
2017-10-11T09:30:42.267Z,45
2017-10-11T09:31:22.854Z,45
2017-10-11T09:32:03.415Z,50
2017-10-11T09:32:43.988Z,55
2017-10-11T09:33:24.548Z,55
2017-10-11T09:34:05.120Z,55
2017-10-11T09:34:45.695Z,55
2017-10-11T09:35:26.265Z,55
2017-10-11T09:36:06.848Z,55
2017-10-11T09:36:47.418Z,55
2017-10-11T09:37:27.996Z,55
2017-10-11T09:38:08.584Z,55
2017-10-11T09:38:49.154Z,55
2017-10-11T09:39:29.737Z,45
2017-10-11T09:40:10.313Z,45
2017-10-11T09:40:50.885Z,50
2017-10-11T09:41:31.454Z,45
2017-10-11T09:42:12.036Z,40
2017-10-11T09:42:52.615Z,45
2017-10-11T09:43:33.179Z,50
2017-10-11T09:44:13.761Z,55
2017-10-11T09:44:54.327Z,45
2017-10-11T09:45:34.893Z,45
2017-10-11T09:46:15.461Z,50
2017-10-11T09:46:56.028Z,50
2017-10-11T09:47:36.598Z,45
2017-10-11T09:48:17.157Z,40
2017-10-11T09:48:57.813Z,45
2017-10-11T09:49:38.385Z,45
2017-10-11T09:50:18.953Z,50
2017-10-11T09:50:59.546Z,55
2017-10-11T09:53:27.651Z,60
2017-10-11T09:54:08.234Z,65
2017-10-11T09:54:48.796Z,65
2017-10-11T09:55:29.368Z,65
2017-10-11T09:56:09.946Z,65
2017-10-11T09:56:50.504Z,65
2017-10-11T09:57:31.074Z,70
2017-10-11T09:58:11.646Z,70
2017-10-11T09:58:52.199Z,65